METAR Data
IDs: Format: Raw Decoded Include TAF

Data at: 1410 UTC 10 Aug 2022

KTRM 101352Z AUTO 23005KT 10SM CLR 28/17 A2989 RMK AO2 SLP125 T02780167
KTRM 101252Z AUTO 00000KT 10SM CLR 29/15 A2986 RMK AO2 SLP116 T02940150
KTRM 101152Z AUTO 02003KT 10SM CLR 31/15 A2984 RMK AO2 SLP107 T03060150 10356 20294 53006
KTRM 101052Z AUTO 00000KT 10SM CLR 29/14 A2983 RMK AO2 SLP104 T02940144
KTRM 100952Z AUTO 31006KT 10SM CLR 32/14 A2982 RMK AO2 SLP102 T03170139
KTRM 100852Z AUTO 33008KT 10SM CLR 33/14 A2982 RMK AO2 SLP101 T03280139 51005
KTRM 100752Z AUTO 33008KT 10SM CLR 33/12 A2982 RMK AO2 SLP100 T03330122 404110261
KTRM 100652Z AUTO 32011KT 10SM CLR 34/12 A2981 RMK AO2 SLP099 T03440117
KTRM 100552Z AUTO 33013KT 10SM CLR 36/12 A2981 RMK AO2 SLP096 T03560117 10411 20317 51020
KTRM 100452Z AUTO 32008KT 10SM CLR 36/12 A2980 RMK AO2 SLP094 T03610117
KTRM 100352Z AUTO 30005KT 10SM CLR 34/16 A2977 RMK AO2 SLP085 T03440161
KTRM 100252Z AUTO 26004KT 10SM CLR 36/18 A2975 RMK AO2 SLP076 T03610183 53006
KTRM 100152Z AUTO 15006KT 10SM CLR 39/18 A2973 RMK AO2 SLP070 T03890178
KTRM 100052Z AUTO 16010KT 10SM FEW110 40/17 A2972 RMK AO2 SLP068 T04000172
KTRM 092352Z AUTO 15008KT 10SM CLR 40/17 A2973 RMK AO2 SLP070 T04000172 10411 20356 56024
KTRM 092252Z AUTO 11006KT 10SM CLR 41/17 A2974 RMK AO2 SLP074 T04060167
KTRM 092152Z AUTO 17008KT 10SM CLR 41/17 A2977 RMK AO2 SLP083 T04110167
KTRM 092052Z AUTO 15009KT 10SM CLR 41/17 A2980 RMK AO2 SLP094 T04060167 58021
KTRM 091952Z AUTO 13010G15KT 10SM CLR 39/17 A2983 RMK AO2 SLP104 T03890172
KTRM 091852Z AUTO 17007KT 9SM CLR 38/18 A2985 RMK AO2 SLP111 T03830178
KTRM 091752Z AUTO VRB05KT 8SM CLR 37/20 A2986 RMK AO2 SLP115 T03670200 10372 20267 50000
KTRM 091722Z AUTO VRB04KT 8SM SCT013 36/19 A2987 RMK AO2 T03560194
KTRM 091652Z AUTO 20004KT 8SM OVC013 36/21 A2987 RMK AO2 SLP118 T03560206
KTRM 091552Z AUTO 17004KT 8SM OVC014 33/21 A2987 RMK AO2 SLP118 T03330206
KTRM 091452Z AUTO 00000KT 6SM HZ OVC013 32/22 A2986 RMK AO2 SLP115 T03220222 53016
KTRM 091433Z AUTO 35003KT 5SM HZ BKN014 31/22 A2985 RMK AO2 T03060222
KTRM 091352Z AUTO 03003KT 5SM HZ CLR 28/22 A2984 RMK AO2 SLP109 T02830217
KTRM 091252Z AUTO 00000KT 6SM HZ CLR 27/21 A2982 RMK AO2 SLP110 T02720211
KTRM 091152Z AUTO 00000KT 6SM HZ CLR 28/21 A2981 RMK AO2 SLP107 T02780206 10300 20261 53005
KTRM 091052Z AUTO 16003KT 5SM HZ CLR 28/21 A2981 RMK AO2 SLP096 T02780206
KTRM 090952Z AUTO 00000KT 6SM HZ CLR 28/21 A2980 RMK AO2 SLP094 T02780206
KTRM 090852Z AUTO 24004KT 6SM HZ CLR 27/21 A2980 RMK AO2 SLP094 T02720206 58008
KTRM 090752Z AUTO 00000KT 5SM HZ CLR 28/21 A2981 RMK AO2 SLP098 T02780206 404110261
KTRM 090652Z AUTO 08004KT 5SM HZ CLR 29/21 A2982 RMK AO2 SLP102 T02940206
KTRM 090552Z AUTO 20003KT 4SM HZ CLR 30/21 A2982 RMK AO2 SLP102 T03000206 10344 20300 51011
KTRM 090452Z AUTO 05004KT 3SM HZ CLR 32/20 A2981 RMK AO2 SLP099 T03220200
KTRM 090352Z AUTO 10004KT 10SM CLR 32/21 A2981 RMK AO2 SLP097 T03170206
KTRM 090252Z AUTO 21003KT 10SM CLR 32/21 A2979 RMK AO2 SLP091 T03220206 53001